BAW904N EGLL-EDDF
Flight info
| Callsign | BAW904N |
|---|---|
| Flight time | N/A |
| Altitude | 35000 |
| Route | BPK Q295 MATCH DCT REDFA DCT TACHA DCT NOLRU DCT DIXAT DIXAT1A |
| Aircraft | A320/M-SDE3FGHIRWY/LB1 |
Departure
| Time | 2026-05-03 21:10 |
|---|---|
| Airport | London Heathrow Airport (EGLL) |
Arrival
| Time | N/A |
|---|---|
| Airport | Frankfurt Main Airport (EDDF) |
| Time | Latitude | Longitude | Altitude | Speed | Heading |
|---|---|---|---|---|---|
| 2026-05-03 20:37 | 51.47361 | -0.48586 | 88 ft | 0 kts | 269° |
| 2026-05-03 20:57 | 51.47361 | -0.48556 | 86 ft | 3 kts | 269° |
| 2026-05-03 20:58 | 51.47361 | -0.48522 | 86 ft | 2 kts | 269° |
| 2026-05-03 20:58 | 51.47359 | -0.48490 | 86 ft | 3 kts | 309° |
| 2026-05-03 20:58 | 51.47342 | -0.48474 | 90 ft | 3 kts | 359° |
| 2026-05-03 20:58 | 51.47322 | -0.48474 | 89 ft | 1 kts | 360° |
| 2026-05-03 21:01 | 51.47324 | -0.48474 | 90 ft | 2 kts | 354° |
| 2026-05-03 21:02 | 51.47324 | -0.48486 | 90 ft | 1 kts | 266° |
| 2026-05-03 21:02 | 51.47315 | -0.48486 | 86 ft | 4 kts | 179° |
| 2026-05-03 21:02 | 51.47239 | -0.48473 | 86 ft | 17 kts | 179° |
| 2026-05-03 21:02 | 51.47095 | -0.48472 | 87 ft | 22 kts | 180° |
| 2026-05-03 21:03 | 51.46933 | -0.48472 | 86 ft | 25 kts | 180° |
| 2026-05-03 21:03 | 51.46791 | -0.48470 | 89 ft | 15 kts | 179° |
| 2026-05-03 21:03 | 51.46741 | -0.48354 | 86 ft | 16 kts | 91° |
| 2026-05-03 21:03 | 51.46741 | -0.48161 | 86 ft | 19 kts | 89° |
| 2026-05-03 21:04 | 51.46743 | -0.47939 | 86 ft | 21 kts | 89° |
| 2026-05-03 21:04 | 51.46746 | -0.47688 | 86 ft | 24 kts | 89° |
| 2026-05-03 21:04 | 51.46747 | -0.47406 | 90 ft | 26 kts | 89° |
| 2026-05-03 21:04 | 51.46748 | -0.47098 | 86 ft | 29 kts | 90° |
| 2026-05-03 21:05 | 51.46749 | -0.46762 | 86 ft | 31 kts | 90° |
| 2026-05-03 21:05 | 51.46750 | -0.46406 | 86 ft | 33 kts | 89° |
| 2026-05-03 21:05 | 51.46751 | -0.46019 | 86 ft | 35 kts | 91° |
| 2026-05-03 21:05 | 51.46748 | -0.45624 | 86 ft | 37 kts | 89° |
| 2026-05-03 21:06 | 51.46751 | -0.45204 | 86 ft | 38 kts | 89° |
| 2026-05-03 21:06 | 51.46756 | -0.44767 | 89 ft | 40 kts | 89° |
| 2026-05-03 21:06 | 51.46758 | -0.44338 | 90 ft | 33 kts | 90° |
| 2026-05-03 21:06 | 51.46747 | -0.44077 | 86 ft | 12 kts | 120° |
| 2026-05-03 21:07 | 51.46669 | -0.44052 | 86 ft | 13 kts | 181° |
| 2026-05-03 21:07 | 51.46624 | -0.44053 | 90 ft | 1 kts | 180° |
| 2026-05-03 21:07 | 51.46618 | -0.44053 | 90 ft | 2 kts | 180° |
| 2026-05-03 21:07 | 51.46611 | -0.44054 | 88 ft | 0 kts | 180° |
| 2026-05-03 21:08 | 51.46610 | -0.44054 | 88 ft | 1 kts | 180° |
| 2026-05-03 21:08 | 51.46593 | -0.44054 | 88 ft | 4 kts | 180° |
| 2026-05-03 21:08 | 51.46560 | -0.44054 | 86 ft | 6 kts | 180° |
| 2026-05-03 21:08 | 51.46508 | -0.44063 | 87 ft | 9 kts | 206° |
| 2026-05-03 21:09 | 51.46492 | -0.44154 | 86 ft | 10 kts | 266° |
| 2026-05-03 21:09 | 51.46492 | -0.44181 | 86 ft | 1 kts | 271° |
| 2026-05-03 21:09 | 51.46492 | -0.44201 | 86 ft | 3 kts | 271° |
| 2026-05-03 21:09 | 51.46493 | -0.44465 | 88 ft | 58 kts | 270° |
| 2026-05-03 21:10 | 51.46489 | -0.45473 | 86 ft | 120 kts | 269° |
| 2026-05-03 21:10 | 51.46483 | -0.47062 | 146 ft | 160 kts | 270° |
| 2026-05-03 21:10 | 51.46475 | -0.48803 | 743 ft | 159 kts | 269° |
| 2026-05-03 21:10 | 51.46494 | -0.50611 | 1426 ft | 159 kts | 276° |
| 2026-05-03 21:11 | 51.46838 | -0.52354 | 1891 ft | 173 kts | 298° |
| 2026-05-03 21:11 | 51.47496 | -0.54089 | 2175 ft | 196 kts | 300° |
| 2026-05-03 21:11 | 51.48185 | -0.56098 | 2533 ft | 217 kts | 298° |
| 2026-05-03 21:11 | 51.48923 | -0.58368 | 2921 ft | 242 kts | 297° |
| 2026-05-03 21:12 | 51.49728 | -0.60881 | 3529 ft | 259 kts | 297° |
| 2026-05-03 21:12 | 51.50619 | -0.63427 | 4404 ft | 267 kts | 308° |
| 2026-05-03 21:12 | 51.52134 | -0.65154 | 5291 ft | 274 kts | 342° |
| 2026-05-03 21:12 | 51.54043 | -0.65473 | 5832 ft | 280 kts | 2° |
| 2026-05-03 21:13 | 51.55888 | -0.64598 | 5976 ft | 279 kts | 32° |
| 2026-05-03 21:13 | 51.57341 | -0.62561 | 6000 ft | 278 kts | 51° |
| 2026-05-03 21:13 | 51.58437 | -0.60066 | 6007 ft | 276 kts | 56° |
| 2026-05-03 21:13 | 51.59558 | -0.57571 | 6007 ft | 276 kts | 54° |
| 2026-05-03 21:14 | 51.60715 | -0.55107 | 6009 ft | 276 kts | 53° |
| 2026-05-03 21:14 | 51.61887 | -0.52647 | 6007 ft | 276 kts | 54° |
| 2026-05-03 21:14 | 51.62866 | -0.49995 | 6149 ft | 279 kts | 64° |
| 2026-05-03 21:14 | 51.63735 | -0.47197 | 7075 ft | 280 kts | 64° |
| 2026-05-03 21:15 | 51.64616 | -0.44380 | 7960 ft | 284 kts | 64° |
| 2026-05-03 21:15 | 51.65509 | -0.41521 | 8846 ft | 289 kts | 64° |
| 2026-05-03 21:15 | 51.66418 | -0.38598 | 9689 ft | 294 kts | 65° |
| 2026-05-03 21:15 | 51.67345 | -0.35599 | 10248 ft | 309 kts | 65° |
| 2026-05-03 21:16 | 51.68335 | -0.32374 | 10497 ft | 332 kts | 65° |
| 2026-05-03 21:16 | 51.69391 | -0.28918 | 10691 ft | 355 kts | 65° |
| 2026-05-03 21:16 | 51.70491 | -0.25321 | 11084 ft | 368 kts | 65° |
| 2026-05-03 21:16 | 51.71638 | -0.21582 | 11721 ft | 374 kts | 65° |
| 2026-05-03 21:17 | 51.72799 | -0.17794 | 12379 ft | 379 kts | 65° |
| 2026-05-03 21:17 | 51.73593 | -0.15205 | 12838 ft | 382 kts | 65° |
| 2026-05-03 21:17 | 51.74917 | -0.09927 | 13729 ft | 386 kts | 76° |
| 2026-05-03 21:17 | 51.75412 | -0.05675 | 14331 ft | 388 kts | 85° |
| 2026-05-03 21:18 | 51.75764 | -0.01337 | 14939 ft | 392 kts | 84° |
| 2026-05-03 21:18 | 51.76123 | 0.03049 | 15496 ft | 396 kts | 84° |
| 2026-05-03 21:18 | 51.76487 | 0.07471 | 16094 ft | 399 kts | 84° |
| 2026-05-03 21:18 | 51.76849 | 0.11935 | 16707 ft | 403 kts | 84° |
| 2026-05-03 21:19 | 51.77215 | 0.16455 | 17338 ft | 407 kts | 84° |
| 2026-05-03 21:19 | 51.77579 | 0.20942 | 17967 ft | 411 kts | 84° |